sensor_id;sensor_type;location;lat;lon;timestamp;P1;durP1;ratioP1;P2;durP2;ratioP2
46407;SDS011;32110;45.724;21.276;2023-04-24T00:00:14;13.25;;;9.20;;
46407;SDS011;32110;45.724;21.276;2023-04-24T00:02:44;13.30;;;8.63;;
46407;SDS011;32110;45.724;21.276;2023-04-24T00:05:12;14.75;;;8.80;;
46407;SDS011;32110;45.724;21.276;2023-04-24T00:07:38;12.93;;;9.20;;
46407;SDS011;32110;45.724;21.276;2023-04-24T00:10:04;12.98;;;9.00;;
46407;SDS011;32110;45.724;21.276;2023-04-24T00:12:30;11.02;;;8.07;;
46407;SDS011;32110;45.724;21.276;2023-04-24T00:14:56;13.55;;;8.82;;
46407;SDS011;32110;45.724;21.276;2023-04-24T00:17:21;17.13;;;8.48;;
46407;SDS011;32110;45.724;21.276;2023-04-24T00:19:47;14.27;;;9.18;;
46407;SDS011;32110;45.724;21.276;2023-04-24T00:22:13;15.02;;;8.98;;
46407;SDS011;32110;45.724;21.276;2023-04-24T00:24:39;13.60;;;8.82;;
46407;SDS011;32110;45.724;21.276;2023-04-24T00:27:05;17.95;;;9.20;;
46407;SDS011;32110;45.724;21.276;2023-04-24T00:29:30;13.40;;;8.63;;
46407;SDS011;32110;45.724;21.276;2023-04-24T00:31:56;13.93;;;8.73;;
46407;SDS011;32110;45.724;21.276;2023-04-24T00:34:21;12.07;;;8.80;;
46407;SDS011;32110;45.724;21.276;2023-04-24T00:36:47;15.18;;;9.15;;
46407;SDS011;32110;45.724;21.276;2023-04-24T00:39:15;14.60;;;9.07;;
46407;SDS011;32110;45.724;21.276;2023-04-24T00:41:41;13.50;;;9.00;;
46407;SDS011;32110;45.724;21.276;2023-04-24T00:44:06;13.88;;;9.25;;
46407;SDS011;32110;45.724;21.276;2023-04-24T00:46:32;14.25;;;8.88;;
46407;SDS011;32110;45.724;21.276;2023-04-24T00:48:57;13.02;;;8.65;;
46407;SDS011;32110;45.724;21.276;2023-04-24T00:51:24;15.57;;;9.48;;
46407;SDS011;32110;45.724;21.276;2023-04-24T00:53:49;13.45;;;9.00;;
46407;SDS011;32110;45.724;21.276;2023-04-24T00:56:16;13.18;;;8.73;;
46407;SDS011;32110;45.724;21.276;2023-04-24T00:58:42;13.52;;;8.75;;
46407;SDS011;32110;45.724;21.276;2023-04-24T01:01:08;14.13;;;8.85;;
46407;SDS011;32110;45.724;21.276;2023-04-24T01:03:35;16.08;;;8.77;;
46407;SDS011;32110;45.724;21.276;2023-04-24T01:06:02;12.10;;;8.95;;
46407;SDS011;32110;45.724;21.276;2023-04-24T01:08:29;15.63;;;8.88;;
46407;SDS011;32110;45.724;21.276;2023-04-24T01:10:55;14.35;;;9.32;;
46407;SDS011;32110;45.724;21.276;2023-04-24T01:13:22;12.98;;;8.82;;
46407;SDS011;32110;45.724;21.276;2023-04-24T01:15:48;12.45;;;8.68;;
46407;SDS011;32110;45.724;21.276;2023-04-24T01:18:14;19.50;;;9.57;;
46407;SDS011;32110;45.724;21.276;2023-04-24T01:20:40;12.90;;;9.23;;
46407;SDS011;32110;45.724;21.276;2023-04-24T01:23:07;13.05;;;9.13;;
46407;SDS011;32110;45.724;21.276;2023-04-24T01:25:33;13.13;;;8.75;;
46407;SDS011;32110;45.724;21.276;2023-04-24T01:27:59;13.82;;;9.40;;
46407;SDS011;32110;45.724;21.276;2023-04-24T01:30:28;12.13;;;8.68;;
46407;SDS011;32110;45.724;21.276;2023-04-24T01:32:54;14.52;;;8.98;;
46407;SDS011;32110;45.724;21.276;2023-04-24T01:35:20;14.45;;;8.60;;
46407;SDS011;32110;45.724;21.276;2023-04-24T01:37:46;11.57;;;8.40;;
46407;SDS011;32110;45.724;21.276;2023-04-24T01:40:11;10.98;;;8.32;;
46407;SDS011;32110;45.724;21.276;2023-04-24T01:42:37;15.70;;;8.40;;
46407;SDS011;32110;45.724;21.276;2023-04-24T01:45:06;11.38;;;8.38;;
46407;SDS011;32110;45.724;21.276;2023-04-24T01:47:35;13.00;;;8.65;;
46407;SDS011;32110;45.724;21.276;2023-04-24T01:50:01;14.95;;;8.73;;
46407;SDS011;32110;45.724;21.276;2023-04-24T01:52:26;14.18;;;7.97;;
46407;SDS011;32110;45.724;21.276;2023-04-24T01:54:53;11.93;;;7.72;;
46407;SDS011;32110;45.724;21.276;2023-04-24T01:57:20;11.73;;;7.95;;
46407;SDS011;32110;45.724;21.276;2023-04-24T01:59:46;15.38;;;8.68;;
46407;SDS011;32110;45.724;21.276;2023-04-24T02:02:11;13.93;;;9.00;;
46407;SDS011;32110;45.724;21.276;2023-04-24T02:04:36;11.98;;;8.02;;
46407;SDS011;32110;45.724;21.276;2023-04-24T02:07:02;15.07;;;8.95;;
46407;SDS011;32110;45.724;21.276;2023-04-24T02:09:27;10.68;;;7.82;;
46407;SDS011;32110;45.724;21.276;2023-04-24T02:11:53;12.80;;;8.00;;
46407;SDS011;32110;45.724;21.276;2023-04-24T02:14:18;10.80;;;7.78;;
46407;SDS011;32110;45.724;21.276;2023-04-24T02:16:43;15.77;;;8.20;;
46407;SDS011;32110;45.724;21.276;2023-04-24T02:19:09;14.38;;;7.68;;
46407;SDS011;32110;45.724;21.276;2023-04-24T02:21:35;13.50;;;8.13;;
46407;SDS011;32110;45.724;21.276;2023-04-24T02:24:00;11.70;;;7.70;;
46407;SDS011;32110;45.724;21.276;2023-04-24T02:26:26;11.13;;;8.10;;
46407;SDS011;32110;45.724;21.276;2023-04-24T02:28:52;12.18;;;8.75;;
46407;SDS011;32110;45.724;21.276;2023-04-24T02:31:17;13.13;;;8.35;;
46407;SDS011;32110;45.724;21.276;2023-04-24T02:33:42;12.45;;;8.20;;
46407;SDS011;32110;45.724;21.276;2023-04-24T02:36:08;15.38;;;7.90;;
46407;SDS011;32110;45.724;21.276;2023-04-24T02:38:33;12.57;;;7.82;;
46407;SDS011;32110;45.724;21.276;2023-04-24T02:40:58;15.63;;;8.43;;
46407;SDS011;32110;45.724;21.276;2023-04-24T02:43:25;10.43;;;7.57;;
46407;SDS011;32110;45.724;21.276;2023-04-24T02:45:51;14.55;;;8.43;;
46407;SDS011;32110;45.724;21.276;2023-04-24T02:48:16;13.77;;;8.18;;
46407;SDS011;32110;45.724;21.276;2023-04-24T02:50:42;17.85;;;7.97;;
46407;SDS011;32110;45.724;21.276;2023-04-24T02:53:08;10.52;;;7.60;;
46407;SDS011;32110;45.724;21.276;2023-04-24T02:55:33;16.77;;;8.80;;
46407;SDS011;32110;45.724;21.276;2023-04-24T02:57:59;12.55;;;8.15;;
46407;SDS011;32110;45.724;21.276;2023-04-24T03:00:25;12.63;;;7.88;;
46407;SDS011;32110;45.724;21.276;2023-04-24T03:02:50;11.55;;;7.88;;
46407;SDS011;32110;45.724;21.276;2023-04-24T03:05:15;12.75;;;8.30;;
46407;SDS011;32110;45.724;21.276;2023-04-24T03:07:41;11.55;;;8.07;;
46407;SDS011;32110;45.724;21.276;2023-04-24T03:10:07;14.20;;;8.30;;
46407;SDS011;32110;45.724;21.276;2023-04-24T03:12:33;16.15;;;8.13;;
46407;SDS011;32110;45.724;21.276;2023-04-24T03:14:58;12.00;;;8.07;;
46407;SDS011;32110;45.724;21.276;2023-04-24T03:17:24;11.35;;;7.63;;
46407;SDS011;32110;45.724;21.276;2023-04-24T03:19:50;12.27;;;7.65;;
46407;SDS011;32110;45.724;21.276;2023-04-24T03:22:15;20.23;;;8.55;;
46407;SDS011;32110;45.724;21.276;2023-04-24T03:24:40;11.27;;;7.90;;
46407;SDS011;32110;45.724;21.276;2023-04-24T03:27:06;15.60;;;8.73;;
46407;SDS011;32110;45.724;21.276;2023-04-24T03:29:31;15.35;;;8.27;;
46407;SDS011;32110;45.724;21.276;2023-04-24T03:31:57;15.68;;;8.55;;
46407;SDS011;32110;45.724;21.276;2023-04-24T03:34:22;11.70;;;7.55;;
46407;SDS011;32110;45.724;21.276;2023-04-24T03:36:47;11.40;;;7.90;;
46407;SDS011;32110;45.724;21.276;2023-04-24T03:39:13;11.13;;;7.80;;
46407;SDS011;32110;45.724;21.276;2023-04-24T03:41:38;13.48;;;8.55;;
46407;SDS011;32110;45.724;21.276;2023-04-24T03:44:04;11.77;;;7.97;;
46407;SDS011;32110;45.724;21.276;2023-04-24T03:46:29;12.75;;;7.85;;
46407;SDS011;32110;45.724;21.276;2023-04-24T03:48:55;12.57;;;8.15;;
46407;SDS011;32110;45.724;21.276;2023-04-24T03:51:20;10.57;;;7.72;;
46407;SDS011;32110;45.724;21.276;2023-04-24T03:53:45;11.50;;;7.60;;
46407;SDS011;32110;45.724;21.276;2023-04-24T03:56:11;10.40;;;7.13;;
46407;SDS011;32110;45.724;21.276;2023-04-24T03:58:36;20.33;;;8.00;;
46407;SDS011;32110;45.724;21.276;2023-04-24T04:01:02;16.63;;;8.43;;
46407;SDS011;32110;45.724;21.276;2023-04-24T04:03:27;15.75;;;8.38;;
46407;SDS011;32110;45.724;21.276;2023-04-24T04:05:53;16.90;;;8.60;;
46407;SDS011;32110;45.724;21.276;2023-04-24T04:08:19;13.45;;;7.97;;
46407;SDS011;32110;45.724;21.276;2023-04-24T04:10:45;15.38;;;7.63;;
46407;SDS011;32110;45.724;21.276;2023-04-24T04:13:10;15.00;;;8.63;;
46407;SDS011;32110;45.724;21.276;2023-04-24T04:15:35;19.95;;;8.05;;
46407;SDS011;32110;45.724;21.276;2023-04-24T04:18:01;13.55;;;7.53;;
46407;SDS011;32110;45.724;21.276;2023-04-24T04:20:26;20.77;;;8.02;;
46407;SDS011;32110;45.724;21.276;2023-04-24T04:22:52;14.95;;;7.68;;
46407;SDS011;32110;45.724;21.276;2023-04-24T04:25:17;15.63;;;8.45;;
46407;SDS011;32110;45.724;21.276;2023-04-24T04:27:44;14.25;;;7.30;;
46407;SDS011;32110;45.724;21.276;2023-04-24T04:30:12;17.27;;;7.90;;
46407;SDS011;32110;45.724;21.276;2023-04-24T04:32:38;17.98;;;7.68;;
46407;SDS011;32110;45.724;21.276;2023-04-24T04:35:04;13.38;;;7.07;;
46407;SDS011;32110;45.724;21.276;2023-04-24T04:37:29;11.38;;;7.20;;
46407;SDS011;32110;45.724;21.276;2023-04-24T04:39:56;12.15;;;7.45;;
46407;SDS011;32110;45.724;21.276;2023-04-24T04:42:23;14.00;;;7.53;;
46407;SDS011;32110;45.724;21.276;2023-04-24T04:44:49;10.43;;;7.18;;
46407;SDS011;32110;45.724;21.276;2023-04-24T04:47:15;13.75;;;7.53;;
46407;SDS011;32110;45.724;21.276;2023-04-24T04:49:42;10.60;;;7.50;;
46407;SDS011;32110;45.724;21.276;2023-04-24T04:52:08;12.05;;;7.63;;
46407;SDS011;32110;45.724;21.276;2023-04-24T04:54:33;13.88;;;7.72;;
46407;SDS011;32110;45.724;21.276;2023-04-24T04:56:59;14.13;;;7.90;;
46407;SDS011;32110;45.724;21.276;2023-04-24T04:59:26;15.80;;;7.65;;
46407;SDS011;32110;45.724;21.276;2023-04-24T05:01:52;8.68;;;6.65;;
46407;SDS011;32110;45.724;21.276;2023-04-24T05:04:17;11.05;;;6.80;;
46407;SDS011;32110;45.724;21.276;2023-04-24T05:06:44;11.52;;;7.47;;
46407;SDS011;32110;45.724;21.276;2023-04-24T05:09:09;9.88;;;7.13;;
46407;SDS011;32110;45.724;21.276;2023-04-24T05:11:35;10.07;;;7.30;;
46407;SDS011;32110;45.724;21.276;2023-04-24T05:14:00;11.57;;;7.35;;
46407;SDS011;32110;45.724;21.276;2023-04-24T05:16:26;19.90;;;13.77;;
46407;SDS011;32110;45.724;21.276;2023-04-24T05:18:51;14.52;;;9.77;;
46407;SDS011;32110;45.724;21.276;2023-04-24T05:21:17;12.32;;;8.75;;
46407;SDS011;32110;45.724;21.276;2023-04-24T05:23:42;16.48;;;8.52;;
46407;SDS011;32110;45.724;21.276;2023-04-24T05:26:07;13.68;;;8.88;;
46407;SDS011;32110;45.724;21.276;2023-04-24T05:28:33;15.27;;;7.80;;
46407;SDS011;32110;45.724;21.276;2023-04-24T05:30:58;15.23;;;8.82;;
46407;SDS011;32110;45.724;21.276;2023-04-24T05:33:24;16.77;;;9.15;;
46407;SDS011;32110;45.724;21.276;2023-04-24T05:35:50;15.65;;;9.27;;
46407;SDS011;32110;45.724;21.276;2023-04-24T05:38:16;14.00;;;8.95;;
46407;SDS011;32110;45.724;21.276;2023-04-24T05:40:44;14.73;;;8.48;;
46407;SDS011;32110;45.724;21.276;2023-04-24T05:43:10;15.30;;;7.85;;
46407;SDS011;32110;45.724;21.276;2023-04-24T05:45:36;14.27;;;8.25;;
46407;SDS011;32110;45.724;21.276;2023-04-24T05:48:02;15.10;;;7.93;;
46407;SDS011;32110;45.724;21.276;2023-04-24T05:50:27;18.50;;;8.15;;
46407;SDS011;32110;45.724;21.276;2023-04-24T05:52:53;15.90;;;8.45;;
46407;SDS011;32110;45.724;21.276;2023-04-24T05:55:18;13.45;;;8.13;;
46407;SDS011;32110;45.724;21.276;2023-04-24T05:57:44;14.57;;;8.88;;
46407;SDS011;32110;45.724;21.276;2023-04-24T06:00:10;22.75;;;10.07;;
46407;SDS011;32110;45.724;21.276;2023-04-24T06:02:37;16.75;;;9.57;;
46407;SDS011;32110;45.724;21.276;2023-04-24T06:05:03;18.02;;;8.73;;
46407;SDS011;32110;45.724;21.276;2023-04-24T06:07:29;23.42;;;10.13;;
46407;SDS011;32110;45.724;21.276;2023-04-24T06:09:55;19.92;;;9.32;;
46407;SDS011;32110;45.724;21.276;2023-04-24T06:12:21;21.20;;;8.85;;
46407;SDS011;32110;45.724;21.276;2023-04-24T06:14:47;13.00;;;8.38;;
46407;SDS011;32110;45.724;21.276;2023-04-24T06:17:12;20.27;;;9.07;;
46407;SDS011;32110;45.724;21.276;2023-04-24T06:19:38;19.40;;;8.68;;
46407;SDS011;32110;45.724;21.276;2023-04-24T06:22:03;14.57;;;9.43;;
46407;SDS011;32110;45.724;21.276;2023-04-24T06:24:29;15.88;;;9.23;;
46407;SDS011;32110;45.724;21.276;2023-04-24T06:26:55;23.17;;;10.20;;
46407;SDS011;32110;45.724;21.276;2023-04-24T06:29:22;13.32;;;8.43;;
46407;SDS011;32110;45.724;21.276;2023-04-24T06:31:47;15.73;;;8.13;;
46407;SDS011;32110;45.724;21.276;2023-04-24T06:34:13;15.68;;;8.50;;
46407;SDS011;32110;45.724;21.276;2023-04-24T06:36:38;17.42;;;9.00;;
46407;SDS011;32110;45.724;21.276;2023-04-24T06:39:03;14.23;;;8.80;;
46407;SDS011;32110;45.724;21.276;2023-04-24T06:41:29;12.93;;;7.70;;
46407;SDS011;32110;45.724;21.276;2023-04-24T06:43:54;14.90;;;8.30;;
46407;SDS011;32110;45.724;21.276;2023-04-24T06:46:20;15.98;;;7.50;;
46407;SDS011;32110;45.724;21.276;2023-04-24T06:48:48;10.02;;;6.75;;
46407;SDS011;32110;45.724;21.276;2023-04-24T06:51:14;14.30;;;7.38;;
46407;SDS011;32110;45.724;21.276;2023-04-24T06:53:39;10.98;;;7.20;;
46407;SDS011;32110;45.724;21.276;2023-04-24T06:56:04;10.88;;;6.93;;
46407;SDS011;32110;45.724;21.276;2023-04-24T06:58:30;11.23;;;6.78;;
46407;SDS011;32110;45.724;21.276;2023-04-24T07:00:55;11.10;;;7.15;;
46407;SDS011;32110;45.724;21.276;2023-04-24T07:03:21;11.50;;;7.38;;
46407;SDS011;32110;45.724;21.276;2023-04-24T07:05:48;10.65;;;6.93;;
46407;SDS011;32110;45.724;21.276;2023-04-24T07:08:14;12.38;;;7.30;;
46407;SDS011;32110;45.724;21.276;2023-04-24T07:10:42;10.68;;;7.68;;
46407;SDS011;32110;45.724;21.276;2023-04-24T07:13:07;10.18;;;7.07;;
46407;SDS011;32110;45.724;21.276;2023-04-24T07:15:33;12.85;;;7.38;;
46407;SDS011;32110;45.724;21.276;2023-04-24T07:17:59;12.40;;;7.60;;
46407;SDS011;32110;45.724;21.276;2023-04-24T07:20:24;9.70;;;6.70;;
46407;SDS011;32110;45.724;21.276;2023-04-24T07:22:50;10.80;;;6.93;;
46407;SDS011;32110;45.724;21.276;2023-04-24T07:25:16;9.63;;;6.47;;
46407;SDS011;32110;45.724;21.276;2023-04-24T07:27:42;8.48;;;5.88;;
46407;SDS011;32110;45.724;21.276;2023-04-24T07:30:08;9.73;;;5.57;;
46407;SDS011;32110;45.724;21.276;2023-04-24T07:32:33;8.20;;;5.63;;
46407;SDS011;32110;45.724;21.276;2023-04-24T07:35:00;8.23;;;5.13;;
46407;SDS011;32110;45.724;21.276;2023-04-24T07:37:25;7.25;;;5.22;;
46407;SDS011;32110;45.724;21.276;2023-04-24T07:39:50;9.23;;;5.35;;
46407;SDS011;32110;45.724;21.276;2023-04-24T07:42:16;10.77;;;5.75;;
46407;SDS011;32110;45.724;21.276;2023-04-24T07:44:41;9.27;;;5.70;;
46407;SDS011;32110;45.724;21.276;2023-04-24T07:47:07;8.55;;;5.80;;
46407;SDS011;32110;45.724;21.276;2023-04-24T07:49:33;7.75;;;5.85;;
46407;SDS011;32110;45.724;21.276;2023-04-24T07:52:00;8.25;;;5.85;;
46407;SDS011;32110;45.724;21.276;2023-04-24T07:54:27;7.63;;;5.47;;
46407;SDS011;32110;45.724;21.276;2023-04-24T07:56:53;10.02;;;6.22;;
46407;SDS011;32110;45.724;21.276;2023-04-24T07:59:18;10.13;;;6.53;;
46407;SDS011;32110;45.724;21.276;2023-04-24T08:01:44;10.50;;;5.65;;
46407;SDS011;32110;45.724;21.276;2023-04-24T08:04:09;9.38;;;5.97;;
46407;SDS011;32110;45.724;21.276;2023-04-24T08:06:35;10.35;;;5.90;;
46407;SDS011;32110;45.724;21.276;2023-04-24T08:09:00;9.55;;;6.30;;
46407;SDS011;32110;45.724;21.276;2023-04-24T08:11:25;7.57;;;5.45;;
46407;SDS011;32110;45.724;21.276;2023-04-24T08:13:51;10.55;;;5.88;;
46407;SDS011;32110;45.724;21.276;2023-04-24T08:16:17;9.00;;;5.95;;
46407;SDS011;32110;45.724;21.276;2023-04-24T08:18:42;9.27;;;6.05;;
46407;SDS011;32110;45.724;21.276;2023-04-24T08:21:08;8.60;;;5.78;;
46407;SDS011;32110;45.724;21.276;2023-04-24T08:23:33;9.07;;;6.00;;
46407;SDS011;32110;45.724;21.276;2023-04-24T08:25:58;13.05;;;5.55;;
46407;SDS011;32110;45.724;21.276;2023-04-24T08:28:24;8.93;;;5.45;;
46407;SDS011;32110;45.724;21.276;2023-04-24T08:30:50;8.13;;;5.50;;
46407;SDS011;32110;45.724;21.276;2023-04-24T08:33:19;8.17;;;5.13;;
46407;SDS011;32110;45.724;21.276;2023-04-24T08:35:48;7.60;;;5.53;;
46407;SDS011;32110;45.724;21.276;2023-04-24T08:38:13;9.05;;;5.50;;
46407;SDS011;32110;45.724;21.276;2023-04-24T08:40:39;7.05;;;5.22;;
46407;SDS011;32110;45.724;21.276;2023-04-24T08:43:07;9.13;;;5.57;;
46407;SDS011;32110;45.724;21.276;2023-04-24T08:45:33;6.80;;;4.97;;
46407;SDS011;32110;45.724;21.276;2023-04-24T08:47:59;9.05;;;5.70;;
46407;SDS011;32110;45.724;21.276;2023-04-24T08:50:25;9.02;;;5.60;;
46407;SDS011;32110;45.724;21.276;2023-04-24T08:52:51;7.93;;;5.97;;
46407;SDS011;32110;45.724;21.276;2023-04-24T08:55:21;7.93;;;5.70;;
46407;SDS011;32110;45.724;21.276;2023-04-24T08:57:50;7.45;;;5.78;;
46407;SDS011;32110;45.724;21.276;2023-04-24T09:00:20;7.50;;;5.43;;
46407;SDS011;32110;45.724;21.276;2023-04-24T09:02:47;7.43;;;5.47;;
46407;SDS011;32110;45.724;21.276;2023-04-24T09:05:15;8.70;;;6.30;;
46407;SDS011;32110;45.724;21.276;2023-04-24T09:07:44;9.93;;;6.25;;
46407;SDS011;32110;45.724;21.276;2023-04-24T09:10:16;9.80;;;6.43;;
46407;SDS011;32110;45.724;21.276;2023-04-24T09:12:42;10.57;;;6.60;;
46407;SDS011;32110;45.724;21.276;2023-04-24T09:15:09;10.15;;;6.63;;
46407;SDS011;32110;45.724;21.276;2023-04-24T09:17:35;9.98;;;6.10;;
46407;SDS011;32110;45.724;21.276;2023-04-24T09:20:01;13.15;;;6.20;;
46407;SDS011;32110;45.724;21.276;2023-04-24T09:22:29;8.43;;;6.07;;
46407;SDS011;32110;45.724;21.276;2023-04-24T09:25:05;10.85;;;6.43;;
46407;SDS011;32110;45.724;21.276;2023-04-24T09:27:34;9.43;;;6.68;;
46407;SDS011;32110;45.724;21.276;2023-04-24T09:30:00;9.18;;;6.93;;
46407;SDS011;32110;45.724;21.276;2023-04-24T09:32:26;10.27;;;7.60;;
46407;SDS011;32110;45.724;21.276;2023-04-24T09:35:07;10.00;;;7.07;;
46407;SDS011;32110;45.724;21.276;2023-04-24T09:37:35;8.85;;;6.63;;
46407;SDS011;32110;45.724;21.276;2023-04-24T09:42:34;9.88;;;6.95;;
46407;SDS011;32110;45.724;21.276;2023-04-24T09:44:59;8.13;;;6.38;;
46407;SDS011;32110;45.724;21.276;2023-04-24T09:47:24;9.10;;;6.20;;
46407;SDS011;32110;45.724;21.276;2023-04-24T09:49:50;9.63;;;6.05;;
46407;SDS011;32110;45.724;21.276;2023-04-24T09:52:15;9.98;;;6.35;;
46407;SDS011;32110;45.724;21.276;2023-04-24T09:54:41;7.82;;;6.30;;
46407;SDS011;32110;45.724;21.276;2023-04-24T09:57:09;10.15;;;7.25;;
46407;SDS011;32110;45.724;21.276;2023-04-24T09:59:35;9.93;;;7.30;;
46407;SDS011;32110;45.724;21.276;2023-04-24T10:02:16;9.85;;;6.88;;
46407;SDS011;32110;45.724;21.276;2023-04-24T10:04:53;9.35;;;6.53;;
46407;SDS011;32110;45.724;21.276;2023-04-24T10:07:20;9.95;;;7.18;;
46407;SDS011;32110;45.724;21.276;2023-04-24T10:09:46;11.45;;;7.22;;
46407;SDS011;32110;45.724;21.276;2023-04-24T10:12:11;12.88;;;7.22;;
46407;SDS011;32110;45.724;21.276;2023-04-24T10:14:38;11.73;;;7.30;;
46407;SDS011;32110;45.724;21.276;2023-04-24T10:17:04;10.38;;;7.15;;
46407;SDS011;32110;45.724;21.276;2023-04-24T10:19:31;12.38;;;7.85;;
46407;SDS011;32110;45.724;21.276;2023-04-24T10:21:57;9.88;;;7.50;;
46407;SDS011;32110;45.724;21.276;2023-04-24T10:24:23;9.75;;;6.95;;
46407;SDS011;32110;45.724;21.276;2023-04-24T10:26:48;13.82;;;7.82;;
46407;SDS011;32110;45.724;21.276;2023-04-24T10:29:14;9.82;;;7.43;;
46407;SDS011;32110;45.724;21.276;2023-04-24T10:31:42;14.13;;;8.40;;
46407;SDS011;32110;45.724;21.276;2023-04-24T10:34:15;16.08;;;8.30;;
46407;SDS011;32110;45.724;21.276;2023-04-24T10:36:50;14.50;;;8.80;;
46407;SDS011;32110;45.724;21.276;2023-04-24T10:39:17;12.98;;;8.05;;
46407;SDS011;32110;45.724;21.276;2023-04-24T10:41:44;11.88;;;7.95;;
46407;SDS011;32110;45.724;21.276;2023-04-24T10:44:20;10.93;;;8.00;;
46407;SDS011;32110;45.724;21.276;2023-04-24T10:46:47;12.32;;;8.00;;
46407;SDS011;32110;45.724;21.276;2023-04-24T10:49:18;12.20;;;7.82;;
46407;SDS011;32110;45.724;21.276;2023-04-24T10:52:00;8.90;;;7.53;;
46407;SDS011;32110;45.724;21.276;2023-04-24T10:54:42;11.45;;;7.97;;
46407;SDS011;32110;45.724;21.276;2023-04-24T10:59:47;10.65;;;7.78;;
46407;SDS011;32110;45.724;21.276;2023-04-24T11:02:37;9.52;;;7.80;;
46407;SDS011;32110;45.724;21.276;2023-04-24T11:05:04;12.63;;;8.23;;
46407;SDS011;32110;45.724;21.276;2023-04-24T11:07:36;11.20;;;8.27;;
46407;SDS011;32110;45.724;21.276;2023-04-24T11:10:33;10.13;;;8.02;;
46407;SDS011;32110;45.724;21.276;2023-04-24T11:12:58;10.75;;;8.18;;
46407;SDS011;32110;45.724;21.276;2023-04-24T11:15:27;9.45;;;7.50;;
46407;SDS011;32110;45.724;21.276;2023-04-24T11:17:54;14.20;;;8.40;;
46407;SDS011;32110;45.724;21.276;2023-04-24T11:20:22;11.85;;;8.73;;
46407;SDS011;32110;45.724;21.276;2023-04-24T11:22:48;9.63;;;7.72;;
46407;SDS011;32110;45.724;21.276;2023-04-24T11:25:18;12.82;;;8.05;;
46407;SDS011;32110;45.724;21.276;2023-04-24T11:27:44;9.40;;;7.75;;
46407;SDS011;32110;45.724;21.276;2023-04-24T11:32:43;12.32;;;8.30;;
46407;SDS011;32110;45.724;21.276;2023-04-24T11:37:39;13.35;;;9.13;;
46407;SDS011;32110;45.724;21.276;2023-04-24T11:40:06;11.85;;;8.95;;
46407;SDS011;32110;45.724;21.276;2023-04-24T11:42:38;11.93;;;8.70;;
46407;SDS011;32110;45.724;21.276;2023-04-24T11:45:12;10.95;;;8.15;;
46407;SDS011;32110;45.724;21.276;2023-04-24T11:47:39;12.05;;;8.25;;
46407;SDS011;32110;45.724;21.276;2023-04-24T11:50:06;12.57;;;8.05;;
46407;SDS011;32110;45.724;21.276;2023-04-24T11:52:33;11.73;;;8.45;;
46407;SDS011;32110;45.724;21.276;2023-04-24T11:55:03;11.93;;;8.95;;
46407;SDS011;32110;45.724;21.276;2023-04-24T11:57:28;12.07;;;8.40;;
46407;SDS011;32110;45.724;21.276;2023-04-24T11:59:58;10.88;;;8.93;;
46407;SDS011;32110;45.724;21.276;2023-04-24T12:02:28;14.48;;;8.70;;
46407;SDS011;32110;45.724;21.276;2023-04-24T12:04:53;12.27;;;9.20;;
46407;SDS011;32110;45.724;21.276;2023-04-24T12:07:19;11.35;;;8.77;;
46407;SDS011;32110;45.724;21.276;2023-04-24T12:12:14;14.73;;;9.37;;
46407;SDS011;32110;45.724;21.276;2023-04-24T12:14:44;11.27;;;9.18;;
46407;SDS011;32110;45.724;21.276;2023-04-24T12:17:12;13.05;;;9.45;;
46407;SDS011;32110;45.724;21.276;2023-04-24T12:19:44;11.75;;;9.45;;
46407;SDS011;32110;45.724;21.276;2023-04-24T12:22:10;16.45;;;11.23;;
46407;SDS011;32110;45.724;21.276;2023-04-24T12:24:54;12.50;;;9.32;;
46407;SDS011;32110;45.724;21.276;2023-04-24T12:27:21;14.82;;;9.57;;
46407;SDS011;32110;45.724;21.276;2023-04-24T12:29:51;14.48;;;9.50;;
46407;SDS011;32110;45.724;21.276;2023-04-24T12:32:18;14.95;;;9.70;;
46407;SDS011;32110;45.724;21.276;2023-04-24T12:34:44;13.50;;;9.38;;
46407;SDS011;32110;45.724;21.276;2023-04-24T12:37:10;17.10;;;10.93;;
46407;SDS011;32110;45.724;21.276;2023-04-24T12:39:36;13.05;;;9.93;;
46407;SDS011;32110;45.724;21.276;2023-04-24T12:42:01;14.07;;;9.88;;
46407;SDS011;32110;45.724;21.276;2023-04-24T12:46:56;15.55;;;9.77;;
46407;SDS011;32110;45.724;21.276;2023-04-24T12:49:22;12.32;;;9.50;;
46407;SDS011;32110;45.724;21.276;2023-04-24T12:51:48;14.15;;;9.48;;
46407;SDS011;32110;45.724;21.276;2023-04-24T12:54:13;12.18;;;9.60;;
46407;SDS011;32110;45.724;21.276;2023-04-24T12:56:39;12.73;;;8.57;;
46407;SDS011;32110;45.724;21.276;2023-04-24T12:59:04;9.90;;;7.82;;
46407;SDS011;32110;45.724;21.276;2023-04-24T13:01:30;12.77;;;8.88;;
46407;SDS011;32110;45.724;21.276;2023-04-24T13:03:56;10.15;;;8.40;;
46407;SDS011;32110;45.724;21.276;2023-04-24T13:06:21;13.05;;;8.77;;
46407;SDS011;32110;45.724;21.276;2023-04-24T13:08:46;12.65;;;9.57;;
46407;SDS011;32110;45.724;21.276;2023-04-24T13:11:13;11.20;;;8.75;;
46407;SDS011;32110;45.724;21.276;2023-04-24T13:13:39;16.77;;;8.90;;
46407;SDS011;32110;45.724;21.276;2023-04-24T13:16:05;10.65;;;8.40;;
46407;SDS011;32110;45.724;21.276;2023-04-24T13:18:30;16.15;;;8.00;;
46407;SDS011;32110;45.724;21.276;2023-04-24T13:20:56;10.25;;;8.20;;
46407;SDS011;32110;45.724;21.276;2023-04-24T13:28:31;9.05;;;7.70;;
46407;SDS011;32110;45.724;21.276;2023-04-24T13:30:57;10.02;;;7.18;;
46407;SDS011;32110;45.724;21.276;2023-04-24T13:33:22;10.38;;;7.00;;
46407;SDS011;32110;45.724;21.276;2023-04-24T13:35:47;14.20;;;7.35;;
46407;SDS011;32110;45.724;21.276;2023-04-24T13:38:13;11.18;;;7.60;;
46407;SDS011;32110;45.724;21.276;2023-04-24T13:40:38;10.43;;;7.63;;
46407;SDS011;32110;45.724;21.276;2023-04-24T13:43:04;16.52;;;7.75;;
46407;SDS011;32110;45.724;21.276;2023-04-24T13:45:29;12.57;;;7.45;;
46407;SDS011;32110;45.724;21.276;2023-04-24T13:47:55;9.35;;;6.95;;
46407;SDS011;32110;45.724;21.276;2023-04-24T13:50:21;56.05;;;10.90;;
46407;SDS011;32110;45.724;21.276;2023-04-24T13:52:47;13.43;;;7.93;;
46407;SDS011;32110;45.724;21.276;2023-04-24T13:55:12;9.45;;;7.35;;
46407;SDS011;32110;45.724;21.276;2023-04-24T13:57:38;13.65;;;7.20;;
46407;SDS011;32110;45.724;21.276;2023-04-24T14:00:03;11.18;;;8.07;;
46407;SDS011;32110;45.724;21.276;2023-04-24T14:02:31;13.80;;;7.72;;
46407;SDS011;32110;45.724;21.276;2023-04-24T14:04:56;18.92;;;8.18;;
46407;SDS011;32110;45.724;21.276;2023-04-24T14:07:21;28.55;;;9.32;;
46407;SDS011;32110;45.724;21.276;2023-04-24T14:09:47;15.80;;;7.20;;
46407;SDS011;32110;45.724;21.276;2023-04-24T14:12:12;13.73;;;6.85;;
46407;SDS011;32110;45.724;21.276;2023-04-24T14:14:39;11.93;;;6.90;;
46407;SDS011;32110;45.724;21.276;2023-04-24T14:17:04;11.52;;;7.18;;
46407;SDS011;32110;45.724;21.276;2023-04-24T14:19:30;14.88;;;6.68;;
46407;SDS011;32110;45.724;21.276;2023-04-24T14:21:56;14.65;;;7.38;;
46407;SDS011;32110;45.724;21.276;2023-04-24T14:24:23;9.55;;;6.40;;
46407;SDS011;32110;45.724;21.276;2023-04-24T14:26:48;9.40;;;6.72;;
46407;SDS011;32110;45.724;21.276;2023-04-24T14:29:14;10.63;;;6.72;;
46407;SDS011;32110;45.724;21.276;2023-04-24T14:31:40;10.80;;;6.60;;
46407;SDS011;32110;45.724;21.276;2023-04-24T14:34:05;11.00;;;6.50;;
46407;SDS011;32110;45.724;21.276;2023-04-24T14:36:30;13.35;;;7.40;;
46407;SDS011;32110;45.724;21.276;2023-04-24T14:38:56;12.32;;;7.25;;